Saline, MI (48176)

2:48 PM EDT on August 27, 2016 (GMT -0400)
Harwood Farms, Saline MI | | Change Station

Elev 850 ft 42.19 °N, 83.72 °W | Updated 7 seconds ago

Overcast
Overcast
72.7 °F
Feels Like 77 °F
N
2.2
Wind Variable Wind from NNE
Gusts 3.8 mph

Today
High -- | Low -- °F
--% Chance of Precip.
Yesterday
High -- | Low -- °F
Precip. -- in
Pressure 30.13 in
Visibility 2.5 miles
Clouds Few 3900 ft
Mostly Cloudy 7500 ft
Overcast 10000 ft
Heat Index 77 °F
Dew Point 53 °F
Humidity 50%
Rainfall 0.00 in
Snow Depth Not available.
6:55 AM 8:16 PM
Waning Crescent, 22% visible
SPECI KARB 271842Z 22027G56KT 2 1/2SM VCTS RA BR FEW039 BKN075 OVC100 22/22 A3013 RMK AO2 PK WND 22056/1841 LTG DSNT NE-S TSB1755E18B21E36 P0057 T02170217
Pressure 30.13 in
Visibility 2.5 miles
Clouds Few 3900 ft
Mostly Cloudy 7500 ft
Overcast 10000 ft
Heat Index 77 °F
Dew Point 53 °F
Humidity 50%
Rainfall 0.00 in
Snow Depth Not available.
6:55 AM 8:16 PM
Waning Crescent, 22% visible
SPECI KARB 271842Z 22027G56KT 2 1/2SM VCTS RA BR FEW039 BKN075 OVC100 22/22 A3013 RMK AO2 PK WND 22056/1841 LTG DSNT NE-S TSB1755E18B21E36 P0057 T02170217

10-Day Weather Forecast

Almanac

Astronomy

Aug. 27, 2016 Rise Set
Actual Time
Civil Twilight
Nautical Twilight
Astronomical Twilight
Moon
Length of Visible Light
Length of Day
Tomorrow will be .
, % of the Moon is Illuminated

Today's Extremes

State Highs State Lows

Community

WunderPhotos

Upload Photos

1,935,399 photos uploaded!

WunderBlog® & News

Nearby

Air Quality

  Air Quality AQ Index Pollutant
Not available.

Snow Depth

Station Depth Elevation

Earthquake Activity

City Distance Mag. Time & Date
Minimum magnitude displayed is 2.5.

Coastal Water Temperatures

Place Temperature

Stations

Nearby Weather Stations

Station Location Temp. Windchill Dew Point Humidity Wind Precip. Elev Updated Type
                   

Watches & Warnings

There are currently no watches in effect.